• pl
  • eng

Awiacja
Kliknij na pogrubioną czerwoną nazwę, aby odkodować depeszę. 10:01 25.03.2017
  • WIND
  • SIGNIFICANT EURO
  • SIGNIFICANT
  • SIGMET
  • AIRMET
  • TAF FC
  • TAF FT
  • METAR GG30
  • METAR GG00


METAR EPBY 250900Z 29013KT CAVOK 06/M02 Q1025 =

METAR EPGD 250900Z 29016KT 9999 BKN014 04/01 Q1023 =

METAR EPKK 250900Z 22011KT 6000 NSC 07/03 Q1026 =

METAR EPKT 250900Z 29009KT CAVOK 08/M02 Q1026 =

METAR EPLB 250900Z 29008KT CAVOK 06/01 Q1024 =

METAR EPLL 250900Z 26012KT CAVOK 06/M06 Q1025 =

METAR EPMO 250900Z 26011KT CAVOK 08/M01 Q1023 =

METAR EPPO 250900Z 27013KT CAVOK 08/M01 Q1027 =

METAR EPRA 250900Z 30007KT CAVOK 07/M00 Q1024=

METAR EPRZ 250900Z 26009KT CAVOK 08/02 Q1025 =

METAR EPSC 250900Z 29011KT CAVOK 07/01 Q1028 =

METAR EPSY 250900Z 28012KT 230V320 CAVOK 08/M04 Q1022=

METAR EPWA 250900Z 28009KT 240V310 CAVOK 08/M02 Q1024 NOSIG=

METAR EPWR 250900Z 30014KT CAVOK 09/M01 Q1028 =

METAR EPZG 250900Z 25008KT CAVOK 09/M01 Q1028 =
Awiacja.imgw.pl jest pogodowym serwisem informacyjnym
Instytutu Meteorologii i Gospodarki Wodnej Państwowego Instytutu Badawczego.
Copyright IMGW PIB 2009-2011© Wszelkie prawa zastrzeżone.